sensor_id;sensor_type;location;lat;lon;timestamp;pressure;altitude;pressure_sealevel;temperature;humidity
58761;BME280;44529;47.464;19.014;2023-03-14T00:02:15;99480.31;;;7.60;59.37
58761;BME280;44529;47.464;19.014;2023-03-14T00:05:17;99462.84;;;7.49;60.15
58761;BME280;44529;47.464;19.014;2023-03-14T00:08:19;99465.53;;;7.49;59.90
58761;BME280;44529;47.464;19.014;2023-03-14T00:11:23;99463.44;;;7.46;60.71
58761;BME280;44529;47.464;19.014;2023-03-14T00:14:25;99452.84;;;7.41;61.11
58761;BME280;44529;47.464;19.014;2023-03-14T00:17:28;99451.53;;;7.38;60.62
58761;BME280;44529;47.464;19.014;2023-03-14T00:20:30;99441.56;;;7.39;60.38
58761;BME280;44529;47.464;19.014;2023-03-14T00:23:34;99443.78;;;7.37;61.99
58761;BME280;44529;47.464;19.014;2023-03-14T00:26:36;99438.56;;;7.40;60.72
58761;BME280;44529;47.464;19.014;2023-03-14T00:29:42;99435.44;;;7.47;60.95
58761;BME280;44529;47.464;19.014;2023-03-14T00:32:44;99428.66;;;7.49;59.93
58761;BME280;44529;47.464;19.014;2023-03-14T00:35:58;99430.72;;;7.52;59.36
58761;BME280;44529;47.464;19.014;2023-03-14T00:39:03;99415.06;;;7.54;59.38
58761;BME280;44529;47.464;19.014;2023-03-14T00:42:06;99408.75;;;7.59;59.26
58761;BME280;44529;47.464;19.014;2023-03-14T00:45:08;99409.25;;;7.61;59.50
58761;BME280;44529;47.464;19.014;2023-03-14T00:48:12;99406.09;;;7.68;59.04
58761;BME280;44529;47.464;19.014;2023-03-14T00:51:15;99415.09;;;7.63;59.51
58761;BME280;44529;47.464;19.014;2023-03-14T00:54:19;99401.97;;;7.62;59.85
58761;BME280;44529;47.464;19.014;2023-03-14T00:57:21;99399.94;;;7.67;59.74
58761;BME280;44529;47.464;19.014;2023-03-14T01:00:24;99392.47;;;7.73;59.32
58761;BME280;44529;47.464;19.014;2023-03-14T01:03:26;99383.47;;;7.69;59.71
58761;BME280;44529;47.464;19.014;2023-03-14T01:06:29;99392.19;;;7.74;59.52
58761;BME280;44529;47.464;19.014;2023-03-14T01:09:32;99386.66;;;7.79;59.41
58761;BME280;44529;47.464;19.014;2023-03-14T01:12:34;99390.75;;;7.68;59.49
58761;BME280;44529;47.464;19.014;2023-03-14T01:15:37;99389.94;;;7.68;58.85
58761;BME280;44529;47.464;19.014;2023-03-14T01:18:41;99382.81;;;7.72;60.40
58761;BME280;44529;47.464;19.014;2023-03-14T01:21:45;99381.88;;;7.68;60.55
58761;BME280;44529;47.464;19.014;2023-03-14T01:24:47;99374.75;;;7.72;60.21
58761;BME280;44529;47.464;19.014;2023-03-14T01:27:50;99368.72;;;7.66;59.70
58761;BME280;44529;47.464;19.014;2023-03-14T01:30:53;99361.09;;;7.59;59.21
58761;BME280;44529;47.464;19.014;2023-03-14T01:33:55;99346.84;;;7.50;59.64
58761;BME280;44529;47.464;19.014;2023-03-14T01:36:58;99326.59;;;7.53;59.45
58761;BME280;44529;47.464;19.014;2023-03-14T01:40:01;99327.88;;;7.55;60.40
58761;BME280;44529;47.464;19.014;2023-03-14T01:43:17;99322.31;;;7.52;60.31
58761;BME280;44529;47.464;19.014;2023-03-14T01:46:24;99325.94;;;7.39;60.87
58761;BME280;44529;47.464;19.014;2023-03-14T01:49:30;99327.22;;;7.41;61.54
58761;BME280;44529;47.464;19.014;2023-03-14T01:52:44;99313.59;;;7.38;60.57
58761;BME280;44529;47.464;19.014;2023-03-14T01:55:48;99290.38;;;7.42;60.77
58761;BME280;44529;47.464;19.014;2023-03-14T01:58:52;99297.47;;;7.46;61.07
58761;BME280;44529;47.464;19.014;2023-03-14T02:01:55;99282.13;;;7.38;61.00
58761;BME280;44529;47.464;19.014;2023-03-14T02:04:58;99295.09;;;7.53;61.32
58761;BME280;44529;47.464;19.014;2023-03-14T02:08:04;99294.97;;;7.50;60.87
58761;BME280;44529;47.464;19.014;2023-03-14T02:11:08;99283.22;;;7.46;61.39
58761;BME280;44529;47.464;19.014;2023-03-14T02:14:19;99284.19;;;7.41;61.59
58761;BME280;44529;47.464;19.014;2023-03-14T02:17:26;99279.44;;;7.38;61.91
58761;BME280;44529;47.464;19.014;2023-03-14T02:20:47;99273.41;;;7.32;61.62
58761;BME280;44529;47.464;19.014;2023-03-14T02:24:04;99270.44;;;7.43;61.23
58761;BME280;44529;47.464;19.014;2023-03-14T02:27:16;99269.00;;;7.45;61.48
58761;BME280;44529;47.464;19.014;2023-03-14T02:30:24;99247.94;;;7.39;61.92
58761;BME280;44529;47.464;19.014;2023-03-14T02:33:27;99242.56;;;7.39;62.27
58761;BME280;44529;47.464;19.014;2023-03-14T02:36:30;99243.03;;;7.32;62.58
58761;BME280;44529;47.464;19.014;2023-03-14T02:39:37;99235.47;;;7.43;62.47
58761;BME280;44529;47.464;19.014;2023-03-14T02:42:41;99227.06;;;7.36;62.34
58761;BME280;44529;47.464;19.014;2023-03-14T02:45:45;99231.97;;;7.33;63.47
58761;BME280;44529;47.464;19.014;2023-03-14T02:48:56;99220.91;;;7.35;63.25
58761;BME280;44529;47.464;19.014;2023-03-14T02:51:59;99236.88;;;7.31;63.18
58761;BME280;44529;47.464;19.014;2023-03-14T02:55:02;99231.34;;;7.37;62.86
58761;BME280;44529;47.464;19.014;2023-03-14T02:58:06;99226.28;;;7.35;63.10
58761;BME280;44529;47.464;19.014;2023-03-14T03:01:10;99201.75;;;7.37;63.20
58761;BME280;44529;47.464;19.014;2023-03-14T03:04:13;99210.31;;;7.39;63.46
58761;BME280;44529;47.464;19.014;2023-03-14T03:07:15;99205.25;;;7.37;64.19
58761;BME280;44529;47.464;19.014;2023-03-14T03:10:17;99194.03;;;7.35;63.07
58761;BME280;44529;47.464;19.014;2023-03-14T03:13:20;99197.19;;;7.37;63.25
58761;BME280;44529;47.464;19.014;2023-03-14T03:16:23;99198.28;;;7.53;63.52
58761;BME280;44529;47.464;19.014;2023-03-14T03:19:26;99197.97;;;7.55;63.52
58761;BME280;44529;47.464;19.014;2023-03-14T03:22:28;99187.84;;;7.52;63.51
58761;BME280;44529;47.464;19.014;2023-03-14T03:25:30;99188.62;;;7.52;63.85
58761;BME280;44529;47.464;19.014;2023-03-14T03:28:36;99186.09;;;7.56;63.32
58761;BME280;44529;47.464;19.014;2023-03-14T03:31:39;99185.31;;;7.47;64.16
58761;BME280;44529;47.464;19.014;2023-03-14T03:34:41;99184.38;;;7.43;64.58
58761;BME280;44529;47.464;19.014;2023-03-14T03:37:45;99175.19;;;7.44;64.12
58761;BME280;44529;47.464;19.014;2023-03-14T03:40:47;99161.09;;;7.47;64.07
58761;BME280;44529;47.464;19.014;2023-03-14T03:43:50;99160.47;;;7.50;63.92
58761;BME280;44529;47.464;19.014;2023-03-14T03:46:53;99166.47;;;7.47;64.25
58761;BME280;44529;47.464;19.014;2023-03-14T03:49:55;99158.59;;;7.42;64.95
58761;BME280;44529;47.464;19.014;2023-03-14T03:52:58;99157.63;;;7.55;64.06
58761;BME280;44529;47.464;19.014;2023-03-14T03:56:00;99158.88;;;7.40;64.58
58761;BME280;44529;47.464;19.014;2023-03-14T03:59:03;99160.47;;;7.32;65.18
58761;BME280;44529;47.464;19.014;2023-03-14T04:02:06;99161.44;;;7.28;66.30
58761;BME280;44529;47.464;19.014;2023-03-14T04:05:09;99168.22;;;7.34;66.13
58761;BME280;44529;47.464;19.014;2023-03-14T04:08:13;99163.81;;;7.29;65.90
58761;BME280;44529;47.464;19.014;2023-03-14T04:11:16;99166.62;;;7.24;66.63
58761;BME280;44529;47.464;19.014;2023-03-14T04:14:19;99169.00;;;7.26;66.71
58761;BME280;44529;47.464;19.014;2023-03-14T04:17:22;99164.28;;;7.23;66.45
58761;BME280;44529;47.464;19.014;2023-03-14T04:20:24;99170.91;;;7.25;66.82
58761;BME280;44529;47.464;19.014;2023-03-14T04:23:27;99160.47;;;7.24;66.48
58761;BME280;44529;47.464;19.014;2023-03-14T04:26:30;99159.03;;;7.18;66.69
58761;BME280;44529;47.464;19.014;2023-03-14T04:29:32;99147.03;;;7.15;66.25
58761;BME280;44529;47.464;19.014;2023-03-14T04:32:35;99140.56;;;7.16;66.92
58761;BME280;44529;47.464;19.014;2023-03-14T04:35:37;99149.72;;;7.15;67.08
58761;BME280;44529;47.464;19.014;2023-03-14T04:38:40;99159.97;;;7.13;66.50
58761;BME280;44529;47.464;19.014;2023-03-14T04:41:44;99154.75;;;7.08;66.76
58761;BME280;44529;47.464;19.014;2023-03-14T04:44:47;99155.06;;;7.06;66.81
58761;BME280;44529;47.464;19.014;2023-03-14T04:47:52;99149.56;;;7.12;66.32
58761;BME280;44529;47.464;19.014;2023-03-14T04:50:55;99151.44;;;7.11;66.37
58761;BME280;44529;47.464;19.014;2023-03-14T04:53:58;99154.47;;;7.10;66.83
58761;BME280;44529;47.464;19.014;2023-03-14T04:57:00;99149.09;;;7.10;66.87
58761;BME280;44529;47.464;19.014;2023-03-14T05:00:04;99152.56;;;7.10;67.38
58761;BME280;44529;47.464;19.014;2023-03-14T05:03:11;99159.53;;;7.11;67.00
58761;BME280;44529;47.464;19.014;2023-03-14T05:06:16;99144.97;;;7.12;66.83
58761;BME280;44529;47.464;19.014;2023-03-14T05:09:18;99142.75;;;7.14;66.84
58761;BME280;44529;47.464;19.014;2023-03-14T05:12:21;99150.19;;;7.17;66.97
58761;BME280;44529;47.464;19.014;2023-03-14T05:15:24;99135.47;;;7.15;66.74
58761;BME280;44529;47.464;19.014;2023-03-14T05:18:26;99136.12;;;7.12;67.21
58761;BME280;44529;47.464;19.014;2023-03-14T05:21:29;99129.31;;;7.14;67.19
58761;BME280;44529;47.464;19.014;2023-03-14T05:24:34;99128.69;;;7.17;69.08
58761;BME280;44529;47.464;19.014;2023-03-14T05:27:37;99129.47;;;7.26;67.10
58761;BME280;44529;47.464;19.014;2023-03-14T05:30:40;99112.88;;;7.24;67.25
58761;BME280;44529;47.464;19.014;2023-03-14T05:33:44;99117.47;;;7.41;66.61
58761;BME280;44529;47.464;19.014;2023-03-14T05:36:47;99123.28;;;7.52;66.10
58761;BME280;44529;47.464;19.014;2023-03-14T05:39:50;99110.81;;;7.47;65.92
58761;BME280;44529;47.464;19.014;2023-03-14T05:42:53;99104.47;;;7.52;64.99
58761;BME280;44529;47.464;19.014;2023-03-14T05:45:55;99109.66;;;7.74;65.24
58761;BME280;44529;47.464;19.014;2023-03-14T05:48:58;99114.03;;;7.87;64.13
58761;BME280;44529;47.464;19.014;2023-03-14T05:52:01;99126.06;;;7.99;64.29
58761;BME280;44529;47.464;19.014;2023-03-14T05:55:05;99123.16;;;8.12;63.75
58761;BME280;44529;47.464;19.014;2023-03-14T05:58:08;99123.63;;;8.14;62.97
58761;BME280;44529;47.464;19.014;2023-03-14T06:01:11;99118.69;;;8.17;63.25
58761;BME280;44529;47.464;19.014;2023-03-14T06:04:14;99128.97;;;8.23;63.44
58761;BME280;44529;47.464;19.014;2023-03-14T06:07:17;99126.09;;;8.28;63.76
58761;BME280;44529;47.464;19.014;2023-03-14T06:10:20;99127.19;;;8.36;63.50
58761;BME280;44529;47.464;19.014;2023-03-14T06:13:23;99125.56;;;8.44;62.75
58761;BME280;44529;47.464;19.014;2023-03-14T06:16:25;99123.47;;;8.49;62.21
58761;BME280;44529;47.464;19.014;2023-03-14T06:19:28;99118.34;;;8.65;60.73
58761;BME280;44529;47.464;19.014;2023-03-14T06:22:30;99115.91;;;8.72;61.51
58761;BME280;44529;47.464;19.014;2023-03-14T06:25:34;99111.59;;;8.80;60.63
58761;BME280;44529;47.464;19.014;2023-03-14T06:28:37;99119.81;;;8.83;60.44
58761;BME280;44529;47.464;19.014;2023-03-14T06:31:40;99123.22;;;8.92;59.16
58761;BME280;44529;47.464;19.014;2023-03-14T06:34:43;99124.75;;;9.02;59.42
58761;BME280;44529;47.464;19.014;2023-03-14T06:37:45;99124.25;;;9.09;59.12
58761;BME280;44529;47.464;19.014;2023-03-14T06:40:48;99120.47;;;9.22;58.62
58761;BME280;44529;47.464;19.014;2023-03-14T06:43:51;99128.84;;;9.29;57.16
58761;BME280;44529;47.464;19.014;2023-03-14T06:46:56;99122.56;;;9.37;57.00
58761;BME280;44529;47.464;19.014;2023-03-14T06:49:58;99126.19;;;9.41;57.35
58761;BME280;44529;47.464;19.014;2023-03-14T06:53:01;99123.28;;;9.46;57.26
58761;BME280;44529;47.464;19.014;2023-03-14T06:56:04;99121.06;;;9.48;57.24
58761;BME280;44529;47.464;19.014;2023-03-14T06:59:07;99122.72;;;9.53;57.54
58761;BME280;44529;47.464;19.014;2023-03-14T07:02:11;99129.63;;;9.63;57.79
58761;BME280;44529;47.464;19.014;2023-03-14T07:05:15;99120.34;;;9.72;57.60
58761;BME280;44529;47.464;19.014;2023-03-14T07:08:17;99124.09;;;9.80;57.31
58761;BME280;44529;47.464;19.014;2023-03-14T07:11:20;99124.13;;;9.92;57.90
58761;BME280;44529;47.464;19.014;2023-03-14T07:14:23;99127.06;;;9.99;57.99
58761;BME280;44529;47.464;19.014;2023-03-14T07:17:28;99123.22;;;10.00;57.73
58761;BME280;44529;47.464;19.014;2023-03-14T07:20:31;99121.75;;;10.03;57.07
58761;BME280;44529;47.464;19.014;2023-03-14T07:23:35;99126.13;;;9.95;57.12
58761;BME280;44529;47.464;19.014;2023-03-14T07:26:37;99126.56;;;9.97;57.49
58761;BME280;44529;47.464;19.014;2023-03-14T07:29:40;99125.25;;;10.03;57.80
58761;BME280;44529;47.464;19.014;2023-03-14T07:32:43;99123.91;;;10.10;57.33
58761;BME280;44529;47.464;19.014;2023-03-14T07:35:47;99128.88;;;10.20;57.86
58761;BME280;44529;47.464;19.014;2023-03-14T07:38:50;99114.72;;;10.35;56.63
58761;BME280;44529;47.464;19.014;2023-03-14T07:41:55;99110.22;;;10.39;56.80
58761;BME280;44529;47.464;19.014;2023-03-14T07:45:00;99101.00;;;10.40;56.33
58761;BME280;44529;47.464;19.014;2023-03-14T07:48:05;99095.59;;;10.52;56.55
58761;BME280;44529;47.464;19.014;2023-03-14T07:51:07;99091.97;;;10.61;56.03
58761;BME280;44529;47.464;19.014;2023-03-14T07:54:10;99093.75;;;10.69;56.12
58761;BME280;44529;47.464;19.014;2023-03-14T07:57:12;99089.94;;;10.82;55.88
58761;BME280;44529;47.464;19.014;2023-03-14T08:00:16;99091.91;;;10.97;55.40
58761;BME280;44529;47.464;19.014;2023-03-14T08:03:20;99078.56;;;11.17;55.56
58761;BME280;44529;47.464;19.014;2023-03-14T08:06:22;99073.09;;;11.29;54.50
58761;BME280;44529;47.464;19.014;2023-03-14T08:09:24;99076.38;;;11.50;55.67
58761;BME280;44529;47.464;19.014;2023-03-14T08:12:27;99070.91;;;11.62;54.99
58761;BME280;44529;47.464;19.014;2023-03-14T08:15:30;99060.22;;;11.82;54.64
58761;BME280;44529;47.464;19.014;2023-03-14T08:18:32;99052.69;;;11.91;53.49
58761;BME280;44529;47.464;19.014;2023-03-14T08:21:35;99045.53;;;12.14;52.71
58761;BME280;44529;47.464;19.014;2023-03-14T08:24:37;99042.63;;;12.39;52.80
58761;BME280;44529;47.464;19.014;2023-03-14T08:27:39;99048.66;;;12.67;52.10
58761;BME280;44529;47.464;19.014;2023-03-14T08:30:44;99046.84;;;13.10;51.33
58761;BME280;44529;47.464;19.014;2023-03-14T08:33:49;99038.78;;;13.75;50.86
58761;BME280;44529;47.464;19.014;2023-03-14T08:36:54;99047.03;;;14.55;48.80
58761;BME280;44529;47.464;19.014;2023-03-14T08:39:59;99040.28;;;15.35;45.91
58761;BME280;44529;47.464;19.014;2023-03-14T08:43:01;99033.13;;;15.98;44.14
58761;BME280;44529;47.464;19.014;2023-03-14T08:46:03;99026.69;;;16.28;42.59
58761;BME280;44529;47.464;19.014;2023-03-14T08:49:06;99031.78;;;16.88;42.96
58761;BME280;44529;47.464;19.014;2023-03-14T08:52:09;99018.25;;;17.27;41.02
58761;BME280;44529;47.464;19.014;2023-03-14T08:55:11;99024.94;;;17.51;39.94
58761;BME280;44529;47.464;19.014;2023-03-14T08:58:14;99025.37;;;18.03;38.59
58761;BME280;44529;47.464;19.014;2023-03-14T09:01:16;99005.84;;;18.19;37.86
58761;BME280;44529;47.464;19.014;2023-03-14T09:04:21;99016.75;;;18.51;37.61
58761;BME280;44529;47.464;19.014;2023-03-14T09:07:23;99003.09;;;18.33;38.51
58761;BME280;44529;47.464;19.014;2023-03-14T09:10:26;99008.50;;;18.61;36.68
58761;BME280;44529;47.464;19.014;2023-03-14T09:13:28;99000.28;;;18.58;36.51
58761;BME280;44529;47.464;19.014;2023-03-14T09:16:33;99001.06;;;18.58;37.00
58761;BME280;44529;47.464;19.014;2023-03-14T09:19:35;98984.28;;;18.56;36.79
58761;BME280;44529;47.464;19.014;2023-03-14T09:22:38;98980.22;;;18.97;36.77
58761;BME280;44529;47.464;19.014;2023-03-14T09:25:40;98983.28;;;19.13;36.47
58761;BME280;44529;47.464;19.014;2023-03-14T09:28:43;98974.88;;;18.68;36.32
58761;BME280;44529;47.464;19.014;2023-03-14T09:31:45;98971.75;;;18.48;36.91
58761;BME280;44529;47.464;19.014;2023-03-14T09:34:47;98958.56;;;18.14;37.65
58761;BME280;44529;47.464;19.014;2023-03-14T09:37:49;98954.13;;;18.63;37.41
58761;BME280;44529;47.464;19.014;2023-03-14T09:40:53;98949.03;;;18.65;37.32
58761;BME280;44529;47.464;19.014;2023-03-14T09:44:10;98949.84;;;18.59;37.47
58761;BME280;44529;47.464;19.014;2023-03-14T09:47:16;98941.69;;;18.45;37.62
58761;BME280;44529;47.464;19.014;2023-03-14T09:50:21;98932.31;;;18.42;37.78
58761;BME280;44529;47.464;19.014;2023-03-14T09:53:41;98930.28;;;18.53;38.65
58761;BME280;44529;47.464;19.014;2023-03-14T09:56:44;98922.53;;;18.45;38.60
58761;BME280;44529;47.464;19.014;2023-03-14T09:59:49;98917.50;;;18.22;38.60
58761;BME280;44529;47.464;19.014;2023-03-14T10:02:56;98911.63;;;18.27;39.66
58761;BME280;44529;47.464;19.014;2023-03-14T10:06:08;98908.03;;;18.48;38.92
58761;BME280;44529;47.464;19.014;2023-03-14T10:09:20;98893.19;;;18.49;40.01
58761;BME280;44529;47.464;19.014;2023-03-14T10:12:32;98886.84;;;18.70;37.19
58761;BME280;44529;47.464;19.014;2023-03-14T10:15:37;98876.44;;;19.06;36.84
58761;BME280;44529;47.464;19.014;2023-03-14T10:18:44;98888.63;;;19.01;35.94
58761;BME280;44529;47.464;19.014;2023-03-14T10:21:53;98869.84;;;19.00;35.80
58761;BME280;44529;47.464;19.014;2023-03-14T10:25:25;98854.47;;;19.16;36.63
58761;BME280;44529;47.464;19.014;2023-03-14T10:28:38;98855.22;;;19.17;35.73
58761;BME280;44529;47.464;19.014;2023-03-14T10:31:52;98842.72;;;19.19;35.90
58761;BME280;44529;47.464;19.014;2023-03-14T10:38:17;98833.66;;;19.23;35.74
58761;BME280;44529;47.464;19.014;2023-03-14T10:41:26;98844.09;;;18.90;36.28
58761;BME280;44529;47.464;19.014;2023-03-14T10:44:30;98832.03;;;18.77;36.93
58761;BME280;44529;47.464;19.014;2023-03-14T10:47:33;98821.44;;;18.79;36.70
58761;BME280;44529;47.464;19.014;2023-03-14T10:50:36;98812.75;;;18.94;36.99
58761;BME280;44529;47.464;19.014;2023-03-14T10:53:41;98818.22;;;18.94;36.62
58761;BME280;44529;47.464;19.014;2023-03-14T10:56:44;98816.28;;;18.95;36.90
58761;BME280;44529;47.464;19.014;2023-03-14T10:59:47;98807.62;;;19.00;36.45
58761;BME280;44529;47.464;19.014;2023-03-14T11:06:52;98797.37;;;19.08;36.41
58761;BME280;44529;47.464;19.014;2023-03-14T11:23:21;98784.25;;;19.33;36.52
58761;BME280;44529;47.464;19.014;2023-03-14T11:26:52;98762.12;;;19.51;35.80
58761;BME280;44529;47.464;19.014;2023-03-14T11:30:12;98759.94;;;19.35;35.82
58761;BME280;44529;47.464;19.014;2023-03-14T11:33:22;98761.28;;;19.20;36.29
58761;BME280;44529;47.464;19.014;2023-03-14T11:36:31;98766.00;;;19.12;36.44
58761;BME280;44529;47.464;19.014;2023-03-14T11:39:40;98755.06;;;19.12;36.42
58761;BME280;44529;47.464;19.014;2023-03-14T11:42:48;98753.69;;;18.93;36.53
58761;BME280;44529;47.464;19.014;2023-03-14T11:45:54;98744.28;;;18.91;36.60
58761;BME280;44529;47.464;19.014;2023-03-14T11:49:34;98743.31;;;19.12;36.73
58761;BME280;44529;47.464;19.014;2023-03-14T11:52:46;98746.53;;;19.44;35.61
58761;BME280;44529;47.464;19.014;2023-03-14T11:55:51;98748.63;;;19.30;36.27
58761;BME280;44529;47.464;19.014;2023-03-14T11:58:59;98738.34;;;19.41;35.45
58761;BME280;44529;47.464;19.014;2023-03-14T12:02:12;98728.00;;;19.56;35.99
58761;BME280;44529;47.464;19.014;2023-03-14T12:11:55;98723.00;;;19.85;35.09
58761;BME280;44529;47.464;19.014;2023-03-14T12:15:01;98717.22;;;19.75;35.63
58761;BME280;44529;47.464;19.014;2023-03-14T12:18:20;98706.00;;;19.97;35.20
58761;BME280;44529;47.464;19.014;2023-03-14T12:21:28;98709.31;;;20.12;34.37
58761;BME280;44529;47.464;19.014;2023-03-14T12:24:49;98702.22;;;20.14;34.22
58761;BME280;44529;47.464;19.014;2023-03-14T12:34:35;98688.06;;;19.58;36.23
58761;BME280;44529;47.464;19.014;2023-03-14T12:37:47;98685.16;;;19.69;36.60
58761;BME280;44529;47.464;19.014;2023-03-14T12:40:57;98687.03;;;19.75;36.35
58761;BME280;44529;47.464;19.014;2023-03-14T12:47:44;98675.28;;;19.79;35.70
58761;BME280;44529;47.464;19.014;2023-03-14T12:51:00;98663.03;;;19.53;35.93
58761;BME280;44529;47.464;19.014;2023-03-14T12:58:08;98661.00;;;19.23;36.46
58761;BME280;44529;47.464;19.014;2023-03-14T13:01:18;98648.31;;;19.02;36.86
58761;BME280;44529;47.464;19.014;2023-03-14T13:04:48;98654.25;;;18.93;36.63
58761;BME280;44529;47.464;19.014;2023-03-14T13:11:09;98650.53;;;18.76;36.86
58761;BME280;44529;47.464;19.014;2023-03-14T13:14:12;98641.19;;;18.70;36.92
58761;BME280;44529;47.464;19.014;2023-03-14T13:17:42;98643.19;;;18.62;37.08
58761;BME280;44529;47.464;19.014;2023-03-14T13:20:51;98633.88;;;18.53;37.33
58761;BME280;44529;47.464;19.014;2023-03-14T13:24:17;98638.22;;;18.47;37.35
58761;BME280;44529;47.464;19.014;2023-03-14T13:27:20;98636.37;;;18.36;37.49
58761;BME280;44529;47.464;19.014;2023-03-14T13:33:26;98640.75;;;18.23;38.06
58761;BME280;44529;47.464;19.014;2023-03-14T13:36:28;98641.56;;;18.20;38.68
58761;BME280;44529;47.464;19.014;2023-03-14T13:39:31;98647.84;;;18.13;38.50
58761;BME280;44529;47.464;19.014;2023-03-14T13:42:36;98649.81;;;18.17;38.85
58761;BME280;44529;47.464;19.014;2023-03-14T13:45:44;98649.41;;;18.14;38.84
58761;BME280;44529;47.464;19.014;2023-03-14T13:48:50;98649.03;;;18.12;39.11
58761;BME280;44529;47.464;19.014;2023-03-14T13:51:52;98651.00;;;18.08;39.11
58761;BME280;44529;47.464;19.014;2023-03-14T13:54:56;98648.28;;;18.08;39.34
58761;BME280;44529;47.464;19.014;2023-03-14T13:57:59;98649.88;;;18.06;38.83
58761;BME280;44529;47.464;19.014;2023-03-14T14:04:18;98652.22;;;18.04;38.97
58761;BME280;44529;47.464;19.014;2023-03-14T14:07:21;98652.66;;;17.95;38.59
58761;BME280;44529;47.464;19.014;2023-03-14T14:10:26;98645.63;;;17.98;38.54
58761;BME280;44529;47.464;19.014;2023-03-14T14:13:32;98641.66;;;18.02;38.66
58761;BME280;44529;47.464;19.014;2023-03-14T14:16:37;98642.84;;;18.05;38.82
58761;BME280;44529;47.464;19.014;2023-03-14T14:19:40;98637.78;;;18.03;38.57
58761;BME280;44529;47.464;19.014;2023-03-14T14:22:45;98627.97;;;18.06;38.62
58761;BME280;44529;47.464;19.014;2023-03-14T14:25:49;98632.25;;;18.10;39.05
58761;BME280;44529;47.464;19.014;2023-03-14T14:29:05;98642.44;;;18.06;39.14
58761;BME280;44529;47.464;19.014;2023-03-14T14:35:23;98633.81;;;18.11;39.03
58761;BME280;44529;47.464;19.014;2023-03-14T14:38:26;98630.28;;;18.11;39.21
58761;BME280;44529;47.464;19.014;2023-03-14T14:41:31;98624.84;;;18.07;39.88
58761;BME280;44529;47.464;19.014;2023-03-14T14:44:34;98626.84;;;18.03;39.25
58761;BME280;44529;47.464;19.014;2023-03-14T14:47:51;98629.91;;;18.09;39.36
58761;BME280;44529;47.464;19.014;2023-03-14T14:51:02;98624.88;;;18.04;39.67
58761;BME280;44529;47.464;19.014;2023-03-14T14:54:14;98619.78;;;18.02;39.52
58761;BME280;44529;47.464;19.014;2023-03-14T14:57:23;98608.84;;;18.02;38.49
58761;BME280;44529;47.464;19.014;2023-03-14T15:00:26;98618.22;;;18.05;38.55
58761;BME280;44529;47.464;19.014;2023-03-14T15:03:31;98627.59;;;18.04;38.92
58761;BME280;44529;47.464;19.014;2023-03-14T15:06:34;98611.22;;;18.00;39.09
58761;BME280;44529;47.464;19.014;2023-03-14T15:09:36;98614.41;;;17.92;39.37
58761;BME280;44529;47.464;19.014;2023-03-14T15:12:39;98623.38;;;17.89;39.46
58761;BME280;44529;47.464;19.014;2023-03-14T15:15:42;98624.56;;;17.87;39.72
58761;BME280;44529;47.464;19.014;2023-03-14T15:18:49;98635.16;;;17.82;40.44
58761;BME280;44529;47.464;19.014;2023-03-14T15:21:53;98641.81;;;17.70;39.54
58761;BME280;44529;47.464;19.014;2023-03-14T15:24:56;98646.13;;;17.68;39.64
58761;BME280;44529;47.464;19.014;2023-03-14T15:27:58;98638.75;;;17.61;39.59
58761;BME280;44529;47.464;19.014;2023-03-14T15:31:00;98644.63;;;17.59;39.82
58761;BME280;44529;47.464;19.014;2023-03-14T15:34:03;98639.97;;;17.49;40.02
58761;BME280;44529;47.464;19.014;2023-03-14T15:37:10;98651.31;;;17.44;40.05
58761;BME280;44529;47.464;19.014;2023-03-14T15:40:13;98652.09;;;17.41;39.90
58761;BME280;44529;47.464;19.014;2023-03-14T15:43:16;98656.41;;;17.31;40.09
58761;BME280;44529;47.464;19.014;2023-03-14T15:46:19;98668.94;;;17.25;40.48
58761;BME280;44529;47.464;19.014;2023-03-14T15:49:22;98688.06;;;17.29;40.51
58761;BME280;44529;47.464;19.014;2023-03-14T15:52:24;98718.13;;;17.32;40.46
58761;BME280;44529;47.464;19.014;2023-03-14T15:55:27;98715.00;;;17.23;48.54
58761;BME280;44529;47.464;19.014;2023-03-14T15:58:29;98728.28;;;17.00;51.04
58761;BME280;44529;47.464;19.014;2023-03-14T16:01:36;98732.59;;;16.83;54.48
58761;BME280;44529;47.464;19.014;2023-03-14T16:04:38;98732.53;;;16.44;57.26
58761;BME280;44529;47.464;19.014;2023-03-14T16:07:41;98741.06;;;16.21;60.56
58761;BME280;44529;47.464;19.014;2023-03-14T16:10:44;98734.41;;;16.04;62.47
58761;BME280;44529;47.464;19.014;2023-03-14T16:13:47;98728.41;;;15.70;64.59
58761;BME280;44529;47.464;19.014;2023-03-14T16:16:51;98726.72;;;15.48;66.87
58761;BME280;44529;47.464;19.014;2023-03-14T16:19:54;98720.81;;;15.38;67.81
58761;BME280;44529;47.464;19.014;2023-03-14T16:22:56;98724.59;;;15.20;68.69
58761;BME280;44529;47.464;19.014;2023-03-14T16:25:59;98717.84;;;14.99;69.07
58761;BME280;44529;47.464;19.014;2023-03-14T16:29:01;98709.22;;;14.86;69.74
58761;BME280;44529;47.464;19.014;2023-03-14T16:32:04;98730.19;;;14.82;70.30
58761;BME280;44529;47.464;19.014;2023-03-14T16:35:07;98722.31;;;14.70;70.67
58761;BME280;44529;47.464;19.014;2023-03-14T16:38:09;98729.25;;;14.68;70.00
58761;BME280;44529;47.464;19.014;2023-03-14T16:41:16;98740.47;;;14.59;70.15
58761;BME280;44529;47.464;19.014;2023-03-14T16:44:18;98756.22;;;14.43;71.49
58761;BME280;44529;47.464;19.014;2023-03-14T16:47:21;98775.22;;;14.39;71.66
58761;BME280;44529;47.464;19.014;2023-03-14T16:50:23;98766.94;;;14.28;71.92
58761;BME280;44529;47.464;19.014;2023-03-14T16:53:26;98781.28;;;14.25;72.59
58761;BME280;44529;47.464;19.014;2023-03-14T16:56:30;98794.19;;;13.98;74.29
58761;BME280;44529;47.464;19.014;2023-03-14T16:59:33;98808.81;;;13.90;75.42
58761;BME280;44529;47.464;19.014;2023-03-14T17:02:36;98795.81;;;13.76;76.78
58761;BME280;44529;47.464;19.014;2023-03-14T17:05:46;98806.78;;;13.83;76.55
58761;BME280;44529;47.464;19.014;2023-03-14T17:08:49;98811.81;;;13.81;76.52